Weather observations for the past three days for
Wiley Post-Will Rogers Memorial Airport
| Date | Time (akdt) | Wind (mph) | Vis. (mi.) | Weather | Sky Cond. | Temperature (ºF) | Relative Humidity | Wind Chill (°F) | Heat Index (°F) | Pressure | Precipitation (in) | ||||||
|---|---|---|---|---|---|---|---|---|---|---|---|---|---|---|---|---|---|
| Air | Dwpt | 6 hour | altimeter (in) | sea level (mb) | 1 hr | 3 hr | 6 hr | ||||||||||
| Max. | Min. | ||||||||||||||||
| 06 | 11:53 | NW 12 | 10.00 | Overcast | OVC010 | 21 | 17.1 | 85% | 10 | 29.85 | 1010.7 | ||||||
| 06 | 10:53 | NW 14 | 10.00 | Overcast | OVC012 | 21 | 16 | 81% | 9 | 29.84 | 1010.6 | ||||||
| 06 | 09:53 | N 12 | 10.00 | Overcast | OVC011 | 19.9 | 16 | 21.9 | 19.9 | 85% | 9 | 29.84 | 1010.6 | ||||
| 06 | 08:53 | NW 10 | 9.00 | Overcast | OVC011 | 19.9 | 16 | 85% | 9 | 29.84 | 1010.5 | ||||||
| 06 | 07:53 | N 13 | 10.00 | Overcast | OVC010 | 19.9 | 16 | 85% | 8 | 29.84 | 1010.5 | ||||||
| 06 | 06:53 | NW 12 | 10.00 | Overcast | OVC009 | 21 | 17.1 | 85% | 10 | 29.83 | 1010.4 | ||||||
| 06 | 05:53 | N 12 | 8.00 | Light Snow | OVC010 | 21 | 18 | 88% | 10 | 29.83 | 1010.3 | ||||||
| 06 | 04:53 | N 10 | 9.00 | Overcast | OVC010 | 21.9 | 18 | 85% | 12 | 29.83 | 1010.3 | ||||||
| 06 | 03:53 | N 12 | 10.00 | Overcast | OVC011 | 21.9 | 18 | 23 | 21.9 | 85% | 11 | 29.83 | 1010.2 | ||||
| 06 | 02:53 | N 13 | 8.00 | Light Snow | BKN010 BKN014 OVC038 | 21.9 | 18 | 85% | 11 | 29.83 | 1010.2 | ||||||
| 06 | 01:53 | N 12 | 10.00 | Overcast | OVC012 | 21.9 | 17.1 | 82% | 11 | 29.83 | 1010.3 | ||||||
| 06 | 00:53 | N 9 | 10.00 | Overcast | BKN013 BKN060 OVC070 | 21.9 | 17.1 | 82% | 13 | 29.83 | 1010.1 | ||||||
| 05 | 23:53 | N 8 | 10.00 | Overcast | SCT013 BKN019 OVC065 | 21.9 | 18 | 85% | 13 | 29.83 | 1010.2 | ||||||
| 05 | 22:53 | N 10 | 5.00 | Light Snow Fog/Mist | BKN014 OVC021 | 23 | 19 | 85% | 13 | 29.83 | 1010.2 | ||||||
| 05 | 21:53 | N 9 | 10.00 | Overcast | OVC015 | 23 | 18 | 24.1 | 23 | 81% | 14 | 29.83 | 1010.3 | ||||
| 05 | 20:53 | N 9 | 10.00 | Overcast | OVC017 | 23 | 18 | 81% | 14 | 29.83 | 1010.4 | ||||||
| 05 | 19:53 | N 9 | 10.00 | Overcast | OVC012 | 23 | 18 | 81% | 14 | 29.84 | 1010.5 | ||||||
| 05 | 18:53 | N 12 | 10.00 | Overcast | OVC012 | 23 | 19 | 85% | 13 | 29.84 | 1010.5 | ||||||
| 05 | 17:53 | N 9 | 8.00 | Light Snow | OVC011 | 24.1 | 19 | 81% | 15 | 29.84 | 1010.5 | ||||||
| 05 | 16:53 | N 8 | 7.00 | Light Snow | OVC010 | 23 | 19 | 85% | 15 | 29.84 | 1010.6 | ||||||
| 05 | 15:53 | N 8 | 9.00 | Overcast | OVC010 | 24.1 | 19.9 | 25 | 23 | 84% | 16 | 29.84 | 1010.7 | ||||
| 05 | 14:53 | NE 9 | 6.00 | Light Snow Fog/Mist | OVC010 | 24.1 | 19.9 | 84% | 15 | 29.85 | 1010.8 | ||||||
| 05 | 13:53 | N 10 | 10.00 | Overcast | SCT008 OVC019 | 25 | 21 | 85% | 16 | 29.85 | 1010.9 | ||||||
| 05 | 12:53 | N 7 | 10.00 | Overcast | OVC007 | 24.1 | 21 | 88% | 17 | 29.86 | 1011.1 | ||||||
| 05 | 11:53 | NE 7 | 9.00 | Overcast | OVC008 | 24.1 | 19.9 | 84% | 17 | 29.86 | 1011.2 | ||||||
| 05 | 10:53 | N 7 | 8.00 | Light Snow | OVC023 | 23 | 19.9 | 88% | 16 | 29.87 | 1011.5 | ||||||
| 05 | 09:53 | NE 6 | 8.00 | Light Snow | BKN021 OVC029 | 23 | 19.9 | 23 | 21.9 | 88% | 17 | 29.88 | 1011.8 | ||||
| 05 | 08:53 | NE 7 | 8.00 | Light Snow | FEW012 OVC028 | 23 | 19.9 | 88% | 16 | 29.89 | 1012.1 | ||||||
| 05 | 07:53 | NE 6 | 10.00 | Overcast | OVC009 | 23 | 19.9 | 88% | 17 | 29.89 | 1012.3 | ||||||
| 05 | 06:53 | NE 5 | 10.00 | Overcast | OVC005 | 23 | 19.9 | 88% | 18 | 29.9 | 1012.6 | ||||||
| 05 | 05:53 | E 3 | 10.00 | Overcast | OVC004 | 21.9 | 19.9 | 92% | 29.91 | 1013.0 | |||||||
| 05 | 04:53 | E 7 | 7.00 | Light Snow | BKN007 OVC026 | 23 | 21 | 92% | 16 | 29.92 | 1013.3 | ||||||
| 05 | 03:53 | E 3 | 4.00 | Light Snow Fog/Mist | OVC006 | 24.1 | 21.9 | 25 | 23 | 91% | 29.93 | 1013.6 | |||||
| 05 | 02:53 | E 6 | 9.00 | Overcast | OVC005 | 24.1 | 21.9 | 91% | 18 | 29.94 | 1014.1 | ||||||
| 05 | 01:53 | E 5 | 10.00 | Overcast | OVC008 | 24.1 | 21.9 | 91% | 19 | 29.96 | 1014.6 | ||||||
| 05 | 00:53 | SE 5 | 10.00 | Overcast | OVC013 | 24.1 | 21.9 | 91% | 19 | 29.97 | 1014.8 | ||||||
| 04 | 23:53 | SE 6 | 8.00 | Overcast | OVC012 | 24.1 | 21.9 | 91% | 18 | 29.98 | 1015.2 | ||||||
| 04 | 22:53 | SE 7 | 5.00 | Fog/Mist | OVC005 | 25 | 23 | 92% | 18 | 29.99 | 1015.6 | ||||||
| 04 | 21:53 | SE 12 | 5.00 | Fog/Mist | OVC009 | 25 | 23 | 27 | 25 | 92% | 15 | 30 | 1015.8 | 0.01 | 0.01 | ||
| 04 | 20:53 | SE 13 | 1.75 | Light Snow Fog/Mist | FEW006 OVC012 | 26.1 | 23 | 88% | 16 | 30 | 1016.1 | ||||||
| 04 | 19:53 | SE 13 | 3.00 | Light Snow Fog/Mist | OVC009 | 26.1 | 24.1 | 92% | 16 | 30.01 | 1016.5 | ||||||
| 04 | 18:53 | SE 15 | 10.00 | Overcast | OVC008 | 26.1 | 24.1 | 92% | 15 | 30.02 | 1016.8 | ||||||
| 04 | 17:53 | SE 15 | 10.00 | Overcast | OVC007 | 26.1 | 24.1 | 92% | 15 | 30.04 | 1017.2 | ||||||
| 04 | 16:53 | SE 20 | 10.00 | Overcast | OVC006 | 27 | 24.1 | 89% | 14 | 30.05 | 1017.5 | ||||||
| 04 | 15:53 | SE 22 | 10.00 | Overcast and Breezy | OVC007 | 27 | 24.1 | 27 | 21 | 89% | 14 | 30.05 | 1017.7 | ||||
| 04 | 14:53 | SE 21 | 10.00 | Overcast and Breezy | BKN011 OVC085 | 26.1 | 23 | 88% | 13 | 30.06 | 1018.1 | ||||||
| 04 | 13:53 | SE 17 | 10.00 | Overcast | OVC085 | 26.1 | 21.9 | 84% | 14 | 30.07 | 1018.5 | ||||||
| 04 | 12:53 | SE 21 | 10.00 | Overcast and Breezy | OVC085 | 25 | 21.9 | 88% | 11 | 30.08 | 1018.7 | ||||||
| 04 | 11:53 | SE 18 | 10.00 | Overcast | BKN033 OVC080 | 24.1 | 19.9 | 84% | 11 | 30.09 | 1019.1 | ||||||
| 04 | 10:53 | SE 17 | 10.00 | Overcast | FEW039 OVC080 | 23 | 17.1 | 78% | 10 | 30.1 | 1019.3 | ||||||
| 04 | 09:53 | SE 15 | 10.00 | Overcast | BKN040 OVC075 | 21 | 17.1 | 21.9 | 19.9 | 85% | 8 | 30.11 | 1019.6 | ||||
| 04 | 08:53 | S 16 | 10.00 | Overcast | OVC070 | 21 | 17.1 | 85% | 8 | 30.1 | 1019.5 | ||||||
| 04 | 07:53 | SE 14 | 10.00 | Overcast | FEW047 OVC065 | 21 | 16 | 81% | 9 | 30.1 | 1019.4 | ||||||
| 04 | 06:53 | SE 10 | 10.00 | Overcast | OVC047 | 21 | 17.1 | 85% | 11 | 30.1 | 1019.4 | ||||||
| 04 | 05:53 | SE 15 | 10.00 | Overcast | OVC044 | 21 | 17.1 | 85% | 8 | 30.1 | 1019.4 | ||||||
| 04 | 04:53 | S 14 | 10.00 | Overcast | OVC043 | 21.9 | 17.1 | 82% | 10 | 30.1 | 1019.5 | ||||||
| 04 | 03:53 | S 15 | 10.00 | Overcast | OVC041 | 21.9 | 17.1 | 25 | 21.9 | 82% | 10 | 30.1 | 1019.4 | ||||
| 04 | 02:53 | S 15 | 10.00 | Overcast | OVC039 | 21.9 | 18 | 85% | 10 | 30.1 | 1019.4 | ||||||
| 04 | 01:53 | S 15 | 10.00 | Overcast | OVC040 | 21.9 | 18 | 85% | 10 | 30.09 | 1019.1 | ||||||
| 04 | 00:53 | S 15 | 10.00 | Overcast | OVC039 | 23 | 19 | 85% | 11 | 30.08 | 1018.8 | ||||||
| 03 | 23:53 | S 10 | 10.00 | Overcast | OVC039 | 23 | 19.9 | 88% | 13 | 30.08 | 1018.6 | ||||||
| 03 | 22:53 | S 12 | 10.00 | Overcast | OVC036 | 24.1 | 19.9 | 84% | 14 | 30.07 | 1018.4 | ||||||
| 03 | 21:53 | S 13 | 10.00 | Overcast | OVC032 | 25 | 21 | 26.1 | 23 | 85% | 14 | 30.07 | 1018.2 | ||||
| 03 | 20:53 | S 13 | 10.00 | Overcast | SCT021 SCT028 OVC034 | 25 | 21 | 85% | 14 | 30.06 | 1017.9 | ||||||
| 03 | 19:53 | S 14 | 10.00 | Overcast | OVC041 | 24.1 | 19.9 | 84% | 13 | 30.05 | 1017.6 | ||||||
| 03 | 18:53 | S 12 | 10.00 | Overcast | OVC045 | 23 | 18 | 81% | 13 | 30.04 | 1017.4 | ||||||
| 03 | 16:53 | SW 13 | 8.00 | Light Snow | OVC027 | 24.1 | 17.1 | 75% | 13 | 30.02 | 1016.8 | ||||||
| 03 | 15:53 | W 15 | 10.00 | Overcast | FEW017 SCT037 OVC048 | 26.1 | 17.1 | 28 | 23 | 69% | 15 | 30 | 1016.1 | ||||
| 03 | 14:53 | W 16 | 10.00 | Overcast | OVC049 | 27 | 19.9 | 75% | 16 | 29.98 | 1015.5 | ||||||
| 03 | 13:53 | SW 14 | 10.00 | Overcast | FEW011 OVC047 | 28 | 21.9 | 78% | 18 | 29.96 | 1014.7 | ||||||
| 03 | 12:53 | W 13 | 10.00 | Overcast | SCT007 OVC045 | 28 | 24.1 | 85% | 18 | 29.93 | 1013.7 | ||||||
| Date | Time (akdt) | Wind (mph) | Vis. (mi.) | Weather | Sky Cond. | Air | Dwpt | Max. | Min. | Relative Humidity | Wind Chill (°F) | Heat Index (°F) | altimeter (in) | sea level (mb) | 1 hr | 3 hr | 6 hr |
| 6 hour | |||||||||||||||||
| Temperature (ºF) | Pressure | Precipitation (in) | |||||||||||||||